createdAt,value
2022-08-09T00:01:05.491Z,6.30
2022-08-09T00:04:06.103Z,7.45
2022-08-09T00:06:24.071Z,5.32
2022-08-09T00:08:51.794Z,6.55
2022-08-09T00:11:24.358Z,6.55
2022-08-09T00:13:51.790Z,7.57
2022-08-09T00:16:26.404Z,6.75
2022-08-09T00:19:10.436Z,5.93
2022-08-09T00:21:38.190Z,7.32
2022-08-09T00:24:22.910Z,4.55
2022-08-09T00:26:50.704Z,7.38
2022-08-09T00:30:10.206Z,7.53
2022-08-09T00:32:03.969Z,9.13
2022-08-09T00:34:33.424Z,9.55
2022-08-09T00:37:00.178Z,7.53
2022-08-09T00:40:14.048Z,6.18
2022-08-09T00:44:14.659Z,7.00
2022-08-09T00:44:59.478Z,6.18
2022-08-09T00:47:30.184Z,7.05
2022-08-09T00:50:02.826Z,5.72
2022-08-09T00:52:31.121Z,5.85
2022-08-09T00:55:00.406Z,6.57
2022-08-09T00:57:35.101Z,6.53
2022-08-09T01:00:21.280Z,7.40
2022-08-09T01:03:28.473Z,8.02
2022-08-09T01:06:17.592Z,7.03
2022-08-09T01:09:03.966Z,7.82
2022-08-09T01:11:55.886Z,6.57
2022-08-09T01:14:35.749Z,6.75
2022-08-09T01:17:12.664Z,9.40
2022-08-09T01:20:02.538Z,7.78
2022-08-09T01:24:00.890Z,8.38
2022-08-09T01:26:19.909Z,7.22
2022-08-09T01:28:50.848Z,9.18
2022-08-09T01:32:30.653Z,9.13
2022-08-09T01:34:08.947Z,6.85
2022-08-09T01:36:36.436Z,8.27
2022-08-09T01:39:05.832Z,7.25
2022-08-09T01:41:36.202Z,9.52
2022-08-09T01:44:04.781Z,7.68
2022-08-09T01:46:41.693Z,8.07
2022-08-09T01:49:16.070Z,9.52
2022-08-09T01:51:54.056Z,8.45
2022-08-09T01:54:32.879Z,8.65
2022-08-09T01:57:04.141Z,9.82
2022-08-09T01:59:32.499Z,7.72
2022-08-09T02:02:01.228Z,9.02
2022-08-09T02:04:29.872Z,8.98
2022-08-09T02:07:18.447Z,8.75
2022-08-09T02:10:13.944Z,8.80
2022-08-09T02:12:42.716Z,9.88
2022-08-09T02:15:11.938Z,10.07
2022-08-09T02:18:00.652Z,9.63
2022-08-09T02:20:34.125Z,9.25
2022-08-09T02:23:07.139Z,11.50
2022-08-09T02:25:42.708Z,10.93
2022-08-09T02:28:20.735Z,8.90
2022-08-09T02:31:10.537Z,8.60
2022-08-09T02:34:07.276Z,9.60
2022-08-09T02:36:36.127Z,10.63
2022-08-09T02:39:05.966Z,9.35
2022-08-09T02:41:43.994Z,11.20
2022-08-09T02:44:29.132Z,9.82
2022-08-09T02:46:58.547Z,10.88
2022-08-09T02:49:38.377Z,11.52
2022-08-09T02:52:06.325Z,12.60
2022-08-09T02:54:35.459Z,10.52
2022-08-09T02:57:23.473Z,11.35
2022-08-09T03:00:11.378Z,13.50
2022-08-09T03:02:39.637Z,10.35
2022-08-09T03:05:25.523Z,12.88
2022-08-09T03:07:55.109Z,12.35
2022-08-09T03:10:23.090Z,11.38
2022-08-09T03:12:51.919Z,12.50
2022-08-09T03:15:20.512Z,13.88
2022-08-09T03:17:57.971Z,11.00
2022-08-09T03:20:29.444Z,14.65
2022-08-09T03:22:58.198Z,10.50
2022-08-09T03:25:26.397Z,10.13
2022-08-09T03:28:11.992Z,12.23
2022-08-09T03:30:38.537Z,11.43
2022-08-09T03:33:17.928Z,11.73
2022-08-09T03:36:15.841Z,12.55
2022-08-09T03:38:42.613Z,11.73
2022-08-09T03:41:15.685Z,10.77
2022-08-09T03:44:03.606Z,11.23
2022-08-09T03:46:30.710Z,13.18
2022-08-09T03:48:59.612Z,13.00
2022-08-09T03:51:57.431Z,10.98
2022-08-09T03:54:18.512Z,11.57
2022-08-09T03:56:57.937Z,12.38
2022-08-09T03:59:27.211Z,13.65
2022-08-09T04:04:20.753Z,11.43
2022-08-09T04:06:51.052Z,12.80
2022-08-09T04:09:47.420Z,11.45
2022-08-09T04:12:12.015Z,13.13
2022-08-09T04:15:00.757Z,11.07
2022-08-09T04:17:29.534Z,11.38
2022-08-09T04:19:56.503Z,10.68
2022-08-09T04:22:23.297Z,12.52
2022-08-09T04:24:49.801Z,13.15
2022-08-09T04:27:17.526Z,10.63
2022-08-09T04:29:49.591Z,12.07
2022-08-09T04:32:17.026Z,12.20
2022-08-09T04:34:54.332Z,9.70
2022-08-09T04:37:23.923Z,10.07
2022-08-09T04:40:11.766Z,10.73
2022-08-09T04:45:16.402Z,14.48
2022-08-09T04:48:00.112Z,11.23
2022-08-09T04:50:33.768Z,10.73
2022-08-09T04:53:11.809Z,12.65
2022-08-09T04:55:57.255Z,11.45
2022-08-09T04:58:25.124Z,12.82
2022-08-09T05:00:52.746Z,12.65
2022-08-09T05:03:41.058Z,13.27
2022-08-09T05:06:22.056Z,12.07
2022-08-09T05:08:59.895Z,11.38
2022-08-09T05:11:32.163Z,13.48
2022-08-09T05:14:01.790Z,11.68
2022-08-09T05:16:32.753Z,11.93
2022-08-09T05:19:00.410Z,16.00
2022-08-09T05:21:29.851Z,11.98
2022-08-09T05:24:01.878Z,11.73
2022-08-09T05:26:37.081Z,11.98
2022-08-09T05:29:17.328Z,11.40
2022-08-09T05:31:49.314Z,14.88
2022-08-09T05:34:22.958Z,11.57
2022-08-09T05:36:57.786Z,13.68
2022-08-09T05:39:28.937Z,15.73
2022-08-09T05:42:01.482Z,12.73
2022-08-09T05:44:32.751Z,13.10
2022-08-09T05:47:01.377Z,13.82
2022-08-09T05:50:30.610Z,13.05
2022-08-09T05:52:18.989Z,12.38
2022-08-09T05:54:46.080Z,13.50
2022-08-09T05:59:45.988Z,13.02
2022-08-09T06:02:17.130Z,15.25
2022-08-09T06:04:45.939Z,13.65
2022-08-09T06:07:21.714Z,11.82
2022-08-09T06:09:54.370Z,12.80
2022-08-09T06:12:26.482Z,10.80
2022-08-09T06:14:53.221Z,14.02
2022-08-09T06:17:19.720Z,15.38
2022-08-09T06:19:46.160Z,12.02
2022-08-09T06:22:15.313Z,12.07
2022-08-09T06:24:43.032Z,12.70
2022-08-09T06:27:09.725Z,11.98
2022-08-09T06:29:48.080Z,11.27
2022-08-09T06:33:00.000Z,12.50
2022-08-09T06:35:09.896Z,10.75
2022-08-09T06:37:53.242Z,12.73
2022-08-09T06:40:24.107Z,11.07
2022-08-09T06:42:50.965Z,10.38
2022-08-09T06:46:04.923Z,11.00
2022-08-09T06:48:04.008Z,11.90
2022-08-09T06:50:31.226Z,10.27
2022-08-09T06:53:00.692Z,12.57
2022-08-09T06:55:31.712Z,10.02
2022-08-09T06:58:04.479Z,12.77
2022-08-09T07:00:52.508Z,9.68
2022-08-09T07:03:28.482Z,10.23
2022-08-09T07:06:03.560Z,9.95
2022-08-09T07:08:31.792Z,8.88
2022-08-09T07:10:58.236Z,10.00
2022-08-09T07:13:29.321Z,9.95
2022-08-09T07:16:41.821Z,9.68
2022-08-09T07:18:47.576Z,6.93
2022-08-09T07:21:16.908Z,8.07
2022-08-09T07:23:46.695Z,8.88
2022-08-09T07:26:24.667Z,8.10
2022-08-09T07:29:08.303Z,7.57
2022-08-09T07:31:38.636Z,8.30
2022-08-09T07:34:15.051Z,7.63
2022-08-09T07:36:48.306Z,8.27
2022-08-09T07:39:20.396Z,8.20
2022-08-09T07:42:02.301Z,8.38
2022-08-09T07:44:50.768Z,8.18
2022-08-09T07:47:15.679Z,7.10
2022-08-09T07:50:04.572Z,6.60
2022-08-09T07:52:29.753Z,7.22
2022-08-09T07:54:57.581Z,6.63
2022-08-09T07:57:24.150Z,8.93
2022-08-09T08:00:03.765Z,8.00
2022-08-09T08:02:30.620Z,6.50
2022-08-09T08:04:57.241Z,6.63
2022-08-09T08:08:43.766Z,5.47
2022-08-09T08:10:11.800Z,8.07
2022-08-09T08:12:43.070Z,6.70
2022-08-09T08:15:18.505Z,4.05
2022-08-09T08:17:53.743Z,4.10
2022-08-09T08:20:29.124Z,6.35
2022-08-09T08:23:01.546Z,5.30
2022-08-09T08:25:40.367Z,4.63
2022-08-09T08:28:14.087Z,5.20
2022-08-09T08:30:41.442Z,5.07
2022-08-09T08:33:11.748Z,4.00
2022-08-09T08:35:58.423Z,4.40
2022-08-09T08:38:25.345Z,4.07
2022-08-09T08:40:56.193Z,6.72
2022-08-09T08:43:23.718Z,4.03
2022-08-09T08:46:03.833Z,5.40
2022-08-09T08:48:51.563Z,2.25
2022-08-09T08:51:20.967Z,3.20
2022-08-09T08:54:04.053Z,3.13
2022-08-09T08:56:33.677Z,3.20
2022-08-09T08:59:07.959Z,4.82
2022-08-09T09:01:52.701Z,3.85
2022-08-09T09:04:26.998Z,3.00
2022-08-09T09:06:56.909Z,2.95
2022-08-09T09:12:16.778Z,3.75
2022-08-09T09:14:44.454Z,2.33
2022-08-09T09:17:13.054Z,3.25
2022-08-09T09:19:43.637Z,4.80
2022-08-09T09:22:15.726Z,2.50
2022-08-09T09:26:03.619Z,2.50
2022-08-09T09:28:05.477Z,1.95
2022-08-09T09:30:41.973Z,2.15
2022-08-09T09:36:01.679Z,2.15
2022-08-09T09:38:50.084Z,3.15
2022-08-09T09:41:32.969Z,2.50
2022-08-09T09:44:12.463Z,2.45
2022-08-09T09:49:23.635Z,2.85
2022-08-09T09:52:33.378Z,1.85
2022-08-09T09:55:16.410Z,2.67
2022-08-09T09:58:18.585Z,2.00
2022-08-09T10:00:58.749Z,3.13
2022-08-09T10:03:39.946Z,2.15
2022-08-09T10:06:06.896Z,3.88
2022-08-09T10:08:54.208Z,2.58
2022-08-09T10:11:53.733Z,3.47
2022-08-09T10:16:57.677Z,1.55
2022-08-09T10:19:35.826Z,1.80
2022-08-09T10:22:02.541Z,5.47
2022-08-09T10:24:35.574Z,1.73
2022-08-09T10:27:02.994Z,3.03
2022-08-09T10:30:56.807Z,1.83
2022-08-09T10:32:42.212Z,1.90
2022-08-09T10:35:10.166Z,2.00
2022-08-09T10:37:38.240Z,2.22
2022-08-09T10:40:12.170Z,1.95
2022-08-09T10:42:55.841Z,2.88
2022-08-09T10:45:23.222Z,4.57
2022-08-09T10:48:19.301Z,1.95
2022-08-09T10:51:14.518Z,1.83
2022-08-09T10:54:12.237Z,1.52
2022-08-09T10:56:42.928Z,3.83
2022-08-09T10:59:31.242Z,2.25
2022-08-09T11:03:14.172Z,1.40
2022-08-09T11:05:25.062Z,1.40
2022-08-09T11:07:59.009Z,1.80
2022-08-09T11:10:54.474Z,1.85
2022-08-09T11:13:50.847Z,2.60
2022-08-09T11:16:37.239Z,2.15
2022-08-09T11:19:09.605Z,2.22
2022-08-09T11:21:57.141Z,1.92
2022-08-09T11:24:57.720Z,2.13
2022-08-09T11:28:03.891Z,3.80
2022-08-09T11:30:33.322Z,1.85
2022-08-09T11:33:19.125Z,2.13
2022-08-09T11:35:57.202Z,3.30
2022-08-09T11:38:33.083Z,1.90
2022-08-09T11:41:13.598Z,2.03
2022-08-09T11:43:48.615Z,2.50
2022-08-09T11:46:26.811Z,2.03
2022-08-09T11:49:00.397Z,2.75
2022-08-09T11:53:00.700Z,3.85
2022-08-09T11:54:28.247Z,2.85
2022-08-09T11:57:56.464Z,2.75
2022-08-09T12:00:27.776Z,1.80
2022-08-09T12:02:56.510Z,2.78
2022-08-09T12:05:39.714Z,2.30
2022-08-09T12:08:21.512Z,2.10
2022-08-09T12:10:54.341Z,5.07
2022-08-09T12:14:09.379Z,3.55
2022-08-09T12:16:38.080Z,1.73
2022-08-09T12:19:06.504Z,1.73
2022-08-09T12:21:38.441Z,2.08
2022-08-09T12:24:09.551Z,2.17
2022-08-09T12:29:15.213Z,4.00
2022-08-09T12:29:58.615Z,3.08
2022-08-09T12:32:31.010Z,1.63
2022-08-09T12:35:02.753Z,3.35
2022-08-09T12:37:44.169Z,3.85
2022-08-09T12:40:18.633Z,2.10
2022-08-09T12:42:45.985Z,2.25
2022-08-09T12:45:32.463Z,1.90
2022-08-09T12:47:59.341Z,2.00
2022-08-09T12:50:27.153Z,2.22
2022-08-09T12:53:07.920Z,2.70
2022-08-09T12:56:14.459Z,3.20
2022-08-09T12:58:28.666Z,3.53
2022-08-09T13:00:55.930Z,3.08
2022-08-09T13:03:58.680Z,2.35
2022-08-09T13:06:34.714Z,2.35
2022-08-09T13:09:23.120Z,2.60
2022-08-09T13:11:52.832Z,2.53
2022-08-09T13:14:42.803Z,2.58
2022-08-09T13:18:02.982Z,2.60
2022-08-09T13:20:14.103Z,2.28
2022-08-09T13:23:01.834Z,2.50
2022-08-09T13:25:42.329Z,3.45
2022-08-09T13:28:18.923Z,1.92
2022-08-09T13:32:19.510Z,2.13
2022-08-09T13:33:57.854Z,3.63
2022-08-09T13:36:42.706Z,2.88
2022-08-09T13:41:46.923Z,2.80
2022-08-09T13:42:03.272Z,2.75
2022-08-09T13:44:31.119Z,2.72
2022-08-09T13:47:25.394Z,2.22
2022-08-09T13:49:56.362Z,2.92
2022-08-09T13:52:28.216Z,2.35
2022-08-09T13:54:59.703Z,2.50
2022-08-09T13:57:37.498Z,3.63
2022-08-09T14:00:27.252Z,3.20
2022-08-09T14:03:03.092Z,3.65
2022-08-09T14:05:57.086Z,2.17
2022-08-09T14:08:30.269Z,1.95
2022-08-09T14:10:57.041Z,2.58
2022-08-09T14:14:15.566Z,4.63
2022-08-09T14:16:15.107Z,3.85
2022-08-09T14:18:45.750Z,2.63
2022-08-09T14:21:20.316Z,3.40
2022-08-09T14:23:54.687Z,2.72
2022-08-09T14:26:25.420Z,2.85
2022-08-09T14:28:57.766Z,2.92
2022-08-09T14:31:49.533Z,3.72
2022-08-09T14:34:11.071Z,2.47
2022-08-09T14:36:42.648Z,4.47
2022-08-09T14:39:09.978Z,2.90
2022-08-09T14:41:41.913Z,3.83
2022-08-09T14:44:09.675Z,3.67
2022-08-09T14:46:54.495Z,3.75
2022-08-09T14:49:25.537Z,3.75
2022-08-09T14:51:58.722Z,2.35
2022-08-09T14:54:27.511Z,3.17
2022-08-09T14:56:58.638Z,3.45
2022-08-09T14:59:27.304Z,3.20
2022-08-09T15:01:55.165Z,2.78
2022-08-09T15:04:23.634Z,2.45
2022-08-09T15:06:51.178Z,3.97
2022-08-09T15:10:03.428Z,2.08
2022-08-09T15:12:07.743Z,1.90
2022-08-09T15:14:35.338Z,3.42
2022-08-09T15:17:07.618Z,3.72
2022-08-09T15:19:36.497Z,2.67
2022-08-09T15:22:03.311Z,4.60
2022-08-09T15:24:29.884Z,2.35
2022-08-09T15:26:56.616Z,2.67
2022-08-09T15:30:50.725Z,3.97
2022-08-09T15:32:29.691Z,2.85
2022-08-09T15:34:59.723Z,2.38
2022-08-09T15:37:57.045Z,2.50
2022-08-09T15:40:25.370Z,1.95
2022-08-09T15:42:59.023Z,4.13
2022-08-09T15:45:29.454Z,3.60
2022-08-09T15:48:05.298Z,2.47
2022-08-09T15:50:34.293Z,4.97
2022-08-09T15:53:06.398Z,2.72
2022-08-09T15:56:04.126Z,4.35
2022-08-09T15:58:26.716Z,2.72
2022-08-09T16:00:53.941Z,3.03
2022-08-09T16:03:26.696Z,3.40
2022-08-09T16:06:05.522Z,2.95
2022-08-09T16:08:31.953Z,4.00
2022-08-09T16:11:02.505Z,2.30
2022-08-09T16:14:04.018Z,2.85
2022-08-09T16:16:18.366Z,3.10
2022-08-09T16:18:45.765Z,2.33
2022-08-09T16:21:17.805Z,3.78
2022-08-09T16:23:54.848Z,4.07
2022-08-09T16:26:35.437Z,2.70
2022-08-09T16:29:11.380Z,3.03
2022-08-09T16:32:18.753Z,2.92
2022-08-09T16:34:53.548Z,2.88
2022-08-09T16:37:16.789Z,2.00
2022-08-09T16:39:54.834Z,2.70
2022-08-09T16:42:31.958Z,2.58
2022-08-09T16:44:58.373Z,2.17
2022-08-09T16:48:42.029Z,2.67
2022-08-09T16:50:31.405Z,2.92
2022-08-09T16:52:58.745Z,2.45
2022-08-09T16:55:27.481Z,2.63
2022-08-09T16:58:11.626Z,2.35
2022-08-09T17:00:38.717Z,2.22
2022-08-09T17:03:21.747Z,1.80
2022-08-09T17:06:08.733Z,3.65
2022-08-09T17:08:58.790Z,3.85
2022-08-09T17:11:33.054Z,3.13
2022-08-09T17:14:25.802Z,4.22
2022-08-09T17:16:55.900Z,2.63
2022-08-09T17:19:22.322Z,3.08
2022-08-09T17:21:54.532Z,2.38
2022-08-09T17:24:30.484Z,3.08
2022-08-09T17:26:59.750Z,1.70
2022-08-09T17:29:31.928Z,2.20
2022-08-09T17:32:04.947Z,2.70
2022-08-09T17:35:01.060Z,2.70
2022-08-09T17:37:19.482Z,2.75
2022-08-09T17:39:53.153Z,1.95
2022-08-09T17:42:40.941Z,2.00
2022-08-09T17:45:15.997Z,3.67
2022-08-09T17:47:55.643Z,2.50
2022-08-09T17:50:36.867Z,2.60
2022-08-09T17:53:19.354Z,4.10
2022-08-09T17:55:50.248Z,2.35
2022-08-09T17:58:18.956Z,3.13
2022-08-09T18:00:46.423Z,3.25
2022-08-09T18:03:14.853Z,2.63
2022-08-09T18:05:44.328Z,2.15
2022-08-09T18:08:11.197Z,2.33
2022-08-09T18:10:40.147Z,2.17
2022-08-09T18:13:39.813Z,2.78
2022-08-09T18:16:07.871Z,2.10
2022-08-09T18:18:43.367Z,3.00
2022-08-09T18:21:23.038Z,3.88
2022-08-09T18:24:09.481Z,2.72
2022-08-09T18:26:38.420Z,1.92
2022-08-09T18:30:41.929Z,2.45
2022-08-09T18:32:00.429Z,2.33
2022-08-09T18:34:31.333Z,2.20
2022-08-09T18:36:58.247Z,1.98
2022-08-09T18:39:25.527Z,2.95
2022-08-09T18:41:53.899Z,3.90
2022-08-09T18:44:26.334Z,4.72
2022-08-09T18:47:08.489Z,3.28
2022-08-09T18:49:43.161Z,1.85
2022-08-09T18:52:14.077Z,5.88
2022-08-09T18:54:42.231Z,3.03
2022-08-09T18:57:18.857Z,2.72
2022-08-09T18:59:51.382Z,4.20
2022-08-09T19:02:32.325Z,2.75
2022-08-09T19:05:04.216Z,2.63
2022-08-09T19:07:41.551Z,2.45
2022-08-09T19:10:14.436Z,3.15
2022-08-09T19:12:42.332Z,4.68
2022-08-09T19:15:19.924Z,2.38
2022-08-09T19:17:54.870Z,4.18
2022-08-09T19:20:25.189Z,2.90
2022-08-09T19:22:54.510Z,3.13
2022-08-09T19:25:41.216Z,6.80
2022-08-09T19:28:08.786Z,3.45
2022-08-09T19:30:40.335Z,3.92
2022-08-09T19:33:19.049Z,1.95
2022-08-09T19:35:56.858Z,3.63
2022-08-09T19:38:26.863Z,2.97
2022-08-09T19:40:54.009Z,2.90
2022-08-09T19:43:57.850Z,3.00
2022-08-09T19:46:08.528Z,2.83
2022-08-09T19:49:00.719Z,2.72
2022-08-09T19:51:27.958Z,2.42
2022-08-09T19:54:00.596Z,5.20
2022-08-09T19:59:18.445Z,3.28
2022-08-09T20:01:53.245Z,4.35
2022-08-09T20:04:36.405Z,2.00
2022-08-09T20:07:06.170Z,3.63
2022-08-09T20:09:44.630Z,2.22
2022-08-09T20:12:22.340Z,3.95
2022-08-09T20:14:56.548Z,5.10
2022-08-09T20:17:22.959Z,2.17
2022-08-09T20:19:54.680Z,2.45
2022-08-09T20:22:21.490Z,2.05
2022-08-09T20:24:58.569Z,2.40
2022-08-09T20:27:29.252Z,3.28
2022-08-09T20:29:57.178Z,2.03
2022-08-09T20:32:30.973Z,3.92
2022-08-09T20:35:01.650Z,3.60
2022-08-09T20:37:37.812Z,3.60
2022-08-09T20:40:19.245Z,2.00
2022-08-09T20:43:09.731Z,3.25
2022-08-09T20:46:01.766Z,2.88
2022-08-09T20:48:29.093Z,8.02
2022-08-09T20:50:58.524Z,2.75
2022-08-09T20:53:37.174Z,3.33
2022-08-09T20:56:06.414Z,3.65
2022-08-09T20:58:35.358Z,2.22
2022-08-09T21:01:32.996Z,2.22
2022-08-09T21:05:48.510Z,2.05
2022-08-09T21:06:42.722Z,3.50
2022-08-09T21:09:11.799Z,2.35
2022-08-09T21:14:27.349Z,3.63
2022-08-09T21:16:58.045Z,2.85
2022-08-09T21:20:17.285Z,3.72
2022-08-09T21:22:38.069Z,5.22
2022-08-09T21:25:17.761Z,4.63
2022-08-09T21:27:51.297Z,2.95
2022-08-09T21:30:19.948Z,4.13
2022-08-09T21:35:15.957Z,3.20
2022-08-09T21:37:56.875Z,3.30
2022-08-09T21:40:30.888Z,2.95
2022-08-09T21:43:04.008Z,3.03
2022-08-09T21:45:33.409Z,4.15
2022-08-09T21:48:07.190Z,2.42
2022-08-09T21:50:38.798Z,2.67
2022-08-09T21:53:06.819Z,3.15
2022-08-09T21:55:46.727Z,3.35
2022-08-09T21:58:13.493Z,2.90
2022-08-09T22:00:40.673Z,2.47
2022-08-09T22:03:19.102Z,3.10
2022-08-09T22:05:46.335Z,2.38
2022-08-09T22:08:18.212Z,2.92
2022-08-09T22:11:49.948Z,3.17
2022-08-09T22:13:35.830Z,2.15
2022-08-09T22:16:07.318Z,2.55
2022-08-09T22:18:35.565Z,2.47
2022-08-09T22:21:03.735Z,2.40
2022-08-09T22:23:59.375Z,3.00
2022-08-09T22:26:23.531Z,4.07
2022-08-09T22:29:06.976Z,2.90
2022-08-09T22:31:35.469Z,3.25
2022-08-09T22:34:02.114Z,3.95
2022-08-09T22:36:28.618Z,3.58
2022-08-09T22:39:04.134Z,3.15
2022-08-09T22:41:30.729Z,2.88
2022-08-09T22:44:02.035Z,2.55
2022-08-09T22:48:18.556Z,3.25
2022-08-09T22:49:17.376Z,3.45
2022-08-09T22:51:49.875Z,2.85
2022-08-09T22:54:27.035Z,5.45
2022-08-09T22:56:55.433Z,4.40
2022-08-09T22:59:57.578Z,4.45
2022-08-09T23:02:10.484Z,3.78
2022-08-09T23:04:41.833Z,3.65
2022-08-09T23:08:22.915Z,3.65
2022-08-09T23:10:13.591Z,3.13
2022-08-09T23:12:40.067Z,2.97
2022-08-09T23:15:06.798Z,3.15
2022-08-09T23:17:33.467Z,3.45
2022-08-09T23:20:06.244Z,4.68
2022-08-09T23:22:34.211Z,3.65
2022-08-09T23:25:03.383Z,2.60
2022-08-09T23:27:29.809Z,3.03
2022-08-09T23:29:56.242Z,3.28
2022-08-09T23:32:22.657Z,3.17
2022-08-09T23:34:49.218Z,2.58
2022-08-09T23:37:25.936Z,3.67
2022-08-09T23:39:52.426Z,3.53
2022-08-09T23:42:18.829Z,3.60
2022-08-09T23:44:45.271Z,3.67
2022-08-09T23:47:11.688Z,2.90
2022-08-09T23:49:38.079Z,3.15
2022-08-09T23:52:04.700Z,2.80
2022-08-09T23:54:31.103Z,4.55
2022-08-09T23:56:58.344Z,4.55
2022-08-09T23:59:25.333Z,3.65
